San Francisco De Macoris, Dominican Republic
Current Conditions -  °F | °C
As of 11:00 AM on Thursday 30 Oct 2014 (Local Time) from MDST Reporting Station
Few Clouds Few Clouds  
Wind Chill: 86°   Ceiling: Unl
Heat Index: 93°   Visibility: 6mi
Dew Point: 73°   Wind: 6mph
Humidity: 66%   Direction: 110°ESE
Pressure: 29.85"   Gusts: NA
Location:  19.3°N, 70.25°W
Report Text: MDST 301500Z 11005KT 9999 FEW024 30/23 Q1011
Loading
Personal Weather Stations






























Interactive Weather Map
Tropical Storm Tracking
New forecast layout! Learn more

10-Day Weather Forecast

Advertisements
Track Severe Weather on mobile